METAR AND TAF INFORMATION
METAR FOR MWCR
ADDS - METARS form results

(1946 UTC 26 April 2018)
Data provider http://aviationweather.gov/adds/metars/
 
METAR text: MWCR 261900Z 14008KT 9999 FEW018 30/25 Q1013
Conditions at: MWCR (GRND CAYMAN/OWEN, KY) observed 1900 UTC 26 April 2018
Temperature: 30.0°C (86°F)
Dewpoint: 25.0°C (77°F) [RH = 75%]
Pressure (altimeter): 29.91 inches Hg (1013.0 mb)
Winds: from the SE (140 degrees) at 9 MPH (8 knots; 4.2 m/s)
Visibility: 6 or more miles (10+ km)
Ceiling: at least 12,000 feet AGL
Clouds: few clouds at 1800 feet AGL
Weather: no significant weather observed at this time

Forecast for: MWCR (GRND CAYMAN/OWEN, KY)
Text: TAF MWCR 261700Z 2618/2718 14005KT 9999 SCT018
Forecast period: 1800 UTC 26 April 2018 to 1800 UTC 27 April 2018
Forecast type: FROM: standard forecast or significant change
Winds: from the SE (140 degrees) at 6 MPH (5 knots; 2.6 m/s)
Visibility: 6 or more miles (10+ km)
Clouds: scattered clouds at 1800 feet AGL
Weather: no significant weather forecast for this period
Forecast for: MWCR (GRND CAYMAN/OWEN, KY)
Text: TAF MWCR 261700Z 2618/2718 14005KT 9999 SCT018
Forecast period: 1800 UTC 26 April 2018 to 1800 UTC 27 April 2018
Forecast type: FROM: standard forecast or significant change
Winds: from the SE (140 degrees) at 6 MPH (5 knots; 2.6 m/s)
Visibility: 6 or more miles (10+ km)
Clouds: scattered clouds at 1800 feet AGL
Weather: no significant weather forecast for this period
Forecast for: MWCR (GRND CAYMAN/OWEN, KY)
Text: TAF MWCR 261700Z 2618/2718 14005KT 9999 SCT018
Forecast period: 2100 UTC 26 April 2018 to 0100 UTC 27 April 2018
Forecast type: TEMPORARY: The following changes expected for less than half the time period
Visibility: 6 or more miles (10+ km)
Clouds: scattered clouds at 1600 feet AGL
scattered clouds at 3500 feet AGL
Weather: SHRA  (rain showers)
Forecast for: MWCR (GRND CAYMAN/OWEN, KY)
Text: TAF MWCR 261700Z 2618/2718 14005KT 9999 SCT018
Forecast period: 2100 UTC 26 April 2018 to 0100 UTC 27 April 2018
Forecast type: TEMPORARY: The following changes expected for less than half the time period
Visibility: 6 or more miles (10+ km)
Clouds: scattered clouds at 1600 feet AGL
scattered clouds at 3500 feet AGL
Weather: SHRA  (rain showers)
Forecast for: MWCR (GRND CAYMAN/OWEN, KY)
Text: TAF MWCR 261700Z 2618/2718 14005KT 9999 SCT018
Forecast period: 0600 to 0800 UTC 27 April 2018
Forecast type: TEMPORARY: The following changes expected for less than half the time period
Visibility: 5 miles (8 km)
Clouds: scattered clouds at 1600 feet AGL
scattered clouds at 3500 feet AGL
Weather: TSRA  (rain associated with thunderstorm(s))
Forecast for: MWCR (GRND CAYMAN/OWEN, KY)
Text: TAF MWCR 261700Z 2618/2718 14005KT 9999 SCT018
Forecast period: 0600 to 0800 UTC 27 April 2018
Forecast type: TEMPORARY: The following changes expected for less than half the time period
Visibility: 5 miles (8 km)
Clouds: scattered clouds at 1600 feet AGL
scattered clouds at 3500 feet AGL
Weather: TSRA  (rain associated with thunderstorm(s))

 AIRPORT MAP

 RUNWAY INFORMATION
Runway 08 Runway length 7021 ft Runway width 148 ft
Runway elevation 8 ft Runway displaced threshold 0 ft Runway heading 76
Runway 26 Runway length 7021 ft Runway width 148 ft
Runway elevation 6 ft Runway displaced threshold 400 ft Runway heading 256

 AIRPORT FREQUENCIES
Type A/D Name GRAND CAYM Frequency 120.2 MHZ
Type ATIS Name ATIS Frequency 132.35 MHZ
Type CNTR Name KINGSTON C Frequency 128.1 MHZ
Type GND Name GND Frequency 121.9 MHZ
Type TWR Name TWR Frequency 118 MHZ

 AIRPORT NEAR NAVIGATION AIDS
Type VOR-DME Name Grand Cayman Frequency 115600 KHZ
Type NDB Name Grand Cayman Frequency 344 KHZ



v2.6.1